Time;durP1;ratioP1;P1;durP2;ratioP2;P2;SDS_P1;SDS_P2;PMS_P1;PMS_P2;Temp;Humidity;BMP_temperature;BMP_pressure;BME280_temperature;BME280_humidity;BME280_pressure;Samples;Min_cycle;Max_cycle;Signal;HPM_P1;HPM_P2
2022/09/15 00:02:00;;;;;;;3.23;2.93;;;24.40;73.80;;;;;;5108223;28;20473;-75
2022/09/15 00:04:31;;;;;;;3.23;2.97;;;24.40;74.40;;;;;;5106298;28;20455;-76
2022/09/15 00:07:02;;;;;;;3.43;2.93;;;24.30;77.50;;;;;;5102277;28;20774;-74
2022/09/15 00:09:35;;;;;;;3.50;2.30;;;24.20;73.30;;;;;;5103125;28;20525;-73
2022/09/15 00:12:06;;;;;;;2.90;2.47;;;24.20;74.40;;;;;;5103710;28;20508;-74
2022/09/15 00:14:36;;;;;;;2.90;2.20;;;24.20;73.20;;;;;;5104769;28;20459;-72
2022/09/15 00:17:07;;;;;;;2.33;2.10;;;24.00;71.80;;;;;;5105987;28;20458;-73
2022/09/15 00:19:38;;;;;;;3.20;2.63;;;24.00;70.90;;;;;;5098690;28;20518;-76
2022/09/15 00:22:10;;;;;;;2.63;2.40;;;24.00;72.20;;;;;;5103071;28;20455;-74
2022/09/15 00:24:42;;;;;;;2.83;2.63;;;23.90;72.50;;;;;;5103312;28;20460;-69
2022/09/15 00:27:13;;;;;;;3.67;3.37;;;23.60;73.70;;;;;;5115681;28;20454;-69
2022/09/15 00:29:44;;;;;;;3.20;2.37;;;23.50;76.50;;;;;;5105609;28;20485;-71
2022/09/15 00:32:15;;;;;;;1.90;1.80;;;23.50;74.40;;;;;;5103753;28;20491;-68
2022/09/15 00:34:45;;;;;;;2.73;2.00;;;23.40;76.20;;;;;;5112213;28;20509;-68
2022/09/15 00:37:16;;;;;;;2.40;2.20;;;23.30;76.70;;;;;;5101935;28;20467;-67
2022/09/15 00:39:49;;;;;;;2.33;2.13;;;23.30;74.50;;;;;;5103200;28;20544;-67
2022/09/15 00:42:24;;;;;;;2.60;2.40;;;23.20;74.90;;;;;;5113082;28;20477;-67
2022/09/15 00:44:58;;;;;;;3.07;2.87;;;23.10;77.90;;;;;;5104349;28;20455;-67
2022/09/15 00:47:31;;;;;;;2.40;2.17;;;23.10;76.80;;;;;;5105275;28;20487;-70
2022/09/15 00:50:06;;;;;;;2.33;2.10;;;23.00;76.40;;;;;;5106887;28;20587;-75
2022/09/15 00:52:42;;;;;;;2.13;2.03;;;22.90;75.80;;;;;;5103823;28;20498;-78
2022/09/15 00:55:19;;;;;;;2.93;2.07;;;22.80;74.60;;;;;;5108205;28;20458;-74
2022/09/15 00:57:54;;;;;;;2.07;1.90;;;22.70;74.00;;;;;;5107486;28;20500;-77
2022/09/15 01:00:27;;;;;;;3.60;2.20;;;22.50;74.90;;;;;;5107470;28;20454;-76
2022/09/15 01:02:59;;;;;;;3.03;2.20;;;22.40;74.40;;;;;;5107493;28;20516;-72
2022/09/15 01:05:33;;;;;;;2.70;2.50;;;22.40;75.20;;;;;;5106607;28;20463;-81
2022/09/15 01:08:08;;;;;;;3.00;2.80;;;22.30;76.50;;;;;;5107031;28;20441;-76
2022/09/15 01:10:42;;;;;;;4.67;2.80;;;22.20;80.00;;;;;;5117878;28;20453;-79
2022/09/15 01:13:15;;;;;;;2.80;2.50;;;22.00;82.20;;;;;;5107684;28;20528;-85
2022/09/15 01:15:56;;;;;;;2.43;2.20;;;22.00;82.90;;;;;;5105357;28;20450;-78
2022/09/15 01:18:33;;;;;;;2.70;2.50;;;22.00;83.60;;;;;;5095831;28;20486;-77
2022/09/15 01:21:22;;;;;;;3.00;2.70;;;21.90;84.60;;;;;;5103139;28;20839;-81
2022/09/15 01:24:25;;;;;;;4.07;3.40;;;21.80;86.50;;;;;;5115383;28;20526;-77
2022/09/15 01:27:09;;;;;;;2.90;2.60;;;21.70;87.50;;;;;;5105613;28;21274;-76
2022/09/15 01:30:11;;;;;;;3.20;2.90;;;21.60;89.00;;;;;;5108692;28;21743;-81
2022/09/15 01:33:04;;;;;;;3.43;3.13;;;21.60;89.90;;;;;;5105844;28;20562;-79
2022/09/15 01:35:56;;;;;;;3.30;3.00;;;21.50;90.50;;;;;;5109921;28;20976;-85
2022/09/15 01:38:38;;;;;;;3.80;3.40;;;21.50;91.10;;;;;;5099873;28;20563;-83
2022/09/15 01:41:14;;;;;;;3.90;3.13;;;21.30;91.30;;;;;;5104307;28;20587;-81
2022/09/15 01:43:55;;;;;;;3.20;2.90;;;21.20;92.00;;;;;;5112704;28;20783;-74
2022/09/15 01:46:31;;;;;;;3.63;3.23;;;21.10;92.30;;;;;;5104351;28;20454;-78
2022/09/15 01:49:03;;;;;;;3.40;3.10;;;21.00;92.60;;;;;;5103536;28;20480;-77
2022/09/15 01:51:36;;;;;;;3.40;3.10;;;21.00;93.00;;;;;;5102648;28;20451;-75
2022/09/15 01:54:08;;;;;;;3.07;2.77;;;20.90;93.10;;;;;;5083654;28;20447;-73
2022/09/15 01:56:39;;;;;;;3.00;2.80;;;20.80;93.60;;;;;;5102702;28;20941;-78
2022/09/15 01:59:10;;;;;;;4.10;3.57;;;20.70;94.10;;;;;;5112848;28;20465;-72
2022/09/15 02:01:50;;;;;;;3.23;3.00;;;20.60;94.30;;;;;;5120753;28;20469;-72
2022/09/15 02:04:29;;;;;;;3.63;3.33;;;20.60;94.50;;;;;;5100873;28;20525;-71
2022/09/15 02:07:05;;;;;;;4.33;3.93;;;20.50;94.90;;;;;;5099956;28;20792;-71
2022/09/15 02:09:40;;;;;;;3.27;2.97;;;20.40;95.80;;;;;;5103226;28;20473;-72
2022/09/15 02:12:18;;;;;;;5.10;3.23;;;20.30;96.40;;;;;;5101034;28;20505;-72
2022/09/15 02:15:02;;;;;;;3.90;3.60;;;20.10;97.00;;;;;;5099256;28;20944;-73
2022/09/15 02:17:38;;;;;;;4.27;3.60;;;20.10;98.10;;;;;;5100175;28;20458;-73
2022/09/15 02:20:14;;;;;;;3.70;3.07;;;20.00;98.30;;;;;;5101723;28;20425;-71
2022/09/15 02:22:52;;;;;;;3.57;3.10;;;20.00;99.10;;;;;;5101113;28;20483;-73
2022/09/15 02:25:29;;;;;;;3.77;3.37;;;19.90;99.70;;;;;;5102199;28;20440;-73
2022/09/15 02:28:05;;;;;;;3.30;2.90;;;19.80;99.90;;;;;;5103567;28;20454;-72
2022/09/15 02:30:39;;;;;;;3.87;3.57;;;19.70;99.90;;;;;;5110029;28;20580;-71
2022/09/15 02:33:15;;;;;;;3.90;3.50;;;19.70;99.90;;;;;;5108661;28;20577;-75
2022/09/15 02:35:46;;;;;;;3.73;3.43;;;19.60;99.90;;;;;;5100742;28;20442;-72
2022/09/15 02:38:17;;;;;;;3.90;3.43;;;19.40;99.90;;;;;;5104669;28;20432;-81
2022/09/15 02:40:48;;;;;;;4.20;3.90;;;19.30;99.90;;;;;;5102036;28;20509;-81
2022/09/15 02:43:19;;;;;;;4.13;3.40;;;19.30;99.90;;;;;;5099102;28;20441;-75
2022/09/15 02:45:50;;;;;;;4.47;3.80;;;19.20;99.90;;;;;;5108921;28;20437;-74
2022/09/15 02:48:24;;;;;;;4.20;3.70;;;19.20;99.90;;;;;;5105148;28;20446;-74
2022/09/15 02:50:54;;;;;;;4.00;3.53;;;19.20;99.90;;;;;;5098517;28;20430;-75
2022/09/15 02:53:25;;;;;;;3.90;3.07;;;19.10;99.90;;;;;;5112212;28;20509;-74
2022/09/15 02:55:56;;;;;;;3.50;3.10;;;19.10;99.90;;;;;;5118698;28;20449;-75
2022/09/15 02:58:27;;;;;;;3.83;3.53;;;19.10;99.90;;;;;;5107653;28;20428;-75
2022/09/15 03:00:59;;;;;;;4.77;3.80;;;19.00;99.90;;;;;;5101174;28;20514;-74
2022/09/15 03:03:31;;;;;;;4.30;3.70;;;19.00;99.90;;;;;;5094503;28;20447;-75
2022/09/15 03:08:50;;;;;;;4.40;3.60;;;19.00;99.90;;;;;;5112211;28;20446;-74
2022/09/15 03:11:23;;;;;;;3.77;3.33;;;18.90;99.90;;;;;;5108059;28;20485;-78
2022/09/15 03:13:55;;;;;;;3.63;3.17;;;18.90;99.90;;;;;;5101741;28;20484;-76
2022/09/15 03:16:27;;;;;;;5.83;4.07;;;18.90;99.90;;;;;;5101804;28;20445;-76
2022/09/15 03:19:00;;;;;;;4.93;3.73;;;18.70;99.90;;;;;;5114731;28;20506;-76
2022/09/15 03:21:31;;;;;;;4.10;3.30;;;18.80;99.90;;;;;;5112964;28;20455;-77
2022/09/15 03:24:02;;;;;;;4.33;3.87;;;18.70;99.90;;;;;;5102195;28;20808;-77
2022/09/15 03:26:36;;;;;;;4.13;3.17;;;18.70;99.90;;;;;;5102050;28;20480;-78
2022/09/15 03:29:09;;;;;;;9.27;4.17;;;18.70;99.90;;;;;;5107795;28;20417;-76
2022/09/15 03:31:40;;;;;;;4.03;3.40;;;18.70;99.90;;;;;;5105260;28;20450;-76
2022/09/15 03:34:12;;;;;;;4.43;3.70;;;18.70;99.90;;;;;;5101657;28;20456;-74
2022/09/15 03:36:43;;;;;;;3.90;3.50;;;18.60;99.90;;;;;;5102443;28;20512;-76
2022/09/15 03:39:14;;;;;;;4.23;3.53;;;18.70;99.90;;;;;;5111786;28;20454;-75
2022/09/15 03:41:45;;;;;;;3.97;3.57;;;18.60;99.90;;;;;;5084854;28;20417;-75
2022/09/15 03:44:17;;;;;;;4.33;3.80;;;18.60;99.90;;;;;;5109899;28;20907;-74
2022/09/15 03:46:47;;;;;;;4.23;3.07;;;18.60;99.90;;;;;;5121451;28;20473;-74
2022/09/15 03:49:20;;;;;;;3.60;3.30;;;18.60;99.90;;;;;;5106804;28;20482;-82
2022/09/15 03:51:51;;;;;;;3.77;3.03;;;18.60;99.90;;;;;;5105224;28;20435;-77
2022/09/15 03:54:22;;;;;;;2.90;2.60;;;18.60;99.90;;;;;;5105195;28;20453;-76
2022/09/15 03:56:53;;;;;;;5.23;3.47;;;18.70;99.90;;;;;;5104228;28;20456;-74
2022/09/15 03:59:23;;;;;;;3.50;2.80;;;18.70;99.90;;;;;;5109453;28;20454;-77
2022/09/15 04:01:54;;;;;;;3.30;3.00;;;18.70;99.90;;;;;;5107110;28;20429;-81
2022/09/15 04:04:27;;;;;;;4.10;3.23;;;18.70;99.90;;;;;;5092655;28;20454;-76
2022/09/15 04:06:58;;;;;;;2.80;2.50;;;18.60;99.90;;;;;;5101445;28;20556;-75
2022/09/15 04:09:29;;;;;;;3.77;3.10;;;18.70;99.90;;;;;;5113784;28;20455;-80
2022/09/15 04:12:00;;;;;;;3.87;3.50;;;18.60;99.90;;;;;;5104796;28;20425;-81
2022/09/15 04:14:31;;;;;;;3.80;2.93;;;18.70;99.90;;;;;;5104477;28;20986;-78
2022/09/15 04:17:01;;;;;;;3.30;2.63;;;18.70;99.90;;;;;;5097196;28;20865;-75
2022/09/15 04:19:34;;;;;;;3.63;2.90;;;18.70;99.90;;;;;;5112147;28;20448;-74
2022/09/15 04:22:05;;;;;;;3.50;2.83;;;18.70;99.90;;;;;;5104558;28;20495;-75
2022/09/15 04:24:36;;;;;;;2.70;2.50;;;18.80;99.90;;;;;;5104788;28;20446;-72
2022/09/15 04:27:07;;;;;;;3.00;2.80;;;18.80;99.90;;;;;;5106319;28;20539;-74
2022/09/15 04:29:38;;;;;;;3.57;2.90;;;18.80;99.90;;;;;;5109481;28;20436;-76
2022/09/15 04:32:09;;;;;;;3.30;3.00;;;18.80;99.90;;;;;;5103501;28;20416;-77
2022/09/15 04:34:41;;;;;;;3.73;2.87;;;18.80;99.90;;;;;;5114476;28;20619;-77
2022/09/15 04:37:12;;;;;;;3.10;2.77;;;18.80;99.90;;;;;;5107968;28;20523;-81
2022/09/15 04:39:43;;;;;;;3.03;2.73;;;18.80;99.90;;;;;;5123841;28;20785;-77
2022/09/15 04:42:14;;;;;;;3.90;2.63;;;18.90;99.90;;;;;;5123981;28;20505;-75
2022/09/15 04:44:44;;;;;;;2.77;2.50;;;18.90;99.90;;;;;;5121487;28;20425;-78
2022/09/15 04:47:15;;;;;;;3.40;2.77;;;19.00;99.90;;;;;;5119232;28;21786;-83
2022/09/15 04:49:48;;;;;;;3.70;3.00;;;18.90;99.90;;;;;;5121220;28;20454;-78
2022/09/15 04:52:18;;;;;;;4.43;3.30;;;18.90;99.90;;;;;;5111880;28;20413;-84
2022/09/15 04:54:49;;;;;;;3.23;2.93;;;18.90;99.90;;;;;;5124026;28;20460;-84
2022/09/15 04:57:20;;;;;;;3.07;2.77;;;19.00;99.90;;;;;;5122927;28;20424;-80
2022/09/15 04:59:51;;;;;;;3.40;2.70;;;19.00;99.90;;;;;;5108134;28;20455;-77
2022/09/15 05:02:21;;;;;;;2.80;2.43;;;19.00;99.90;;;;;;5102535;28;20550;-74
2022/09/15 05:04:54;;;;;;;4.30;3.30;;;19.00;99.90;;;;;;5103293;28;20437;-80
2022/09/15 05:07:25;;;;;;;2.90;2.57;;;19.00;99.90;;;;;;5104750;28;20448;-78
2022/09/15 05:09:56;;;;;;;3.17;2.70;;;18.90;99.90;;;;;;5099727;28;20429;-78
2022/09/15 05:12:26;;;;;;;3.47;2.50;;;18.90;99.90;;;;;;5111065;28;20492;-78
2022/09/15 05:14:57;;;;;;;3.27;2.50;;;18.80;99.90;;;;;;5111553;28;20539;-80
2022/09/15 05:17:31;;;;;;;2.53;2.33;;;18.80;99.90;;;;;;5108587;28;20483;-77
2022/09/15 05:20:04;;;;;;;3.50;3.20;;;18.80;99.90;;;;;;5107771;28;20481;-75
2022/09/15 05:22:35;;;;;;;3.40;3.10;;;18.80;99.90;;;;;;5123731;28;20972;-77
2022/09/15 05:25:11;;;;;;;2.97;2.50;;;18.80;99.90;;;;;;5108760;28;20447;-76
2022/09/15 05:27:41;;;;;;;3.10;2.90;;;18.80;99.90;;;;;;5108095;28;20448;-77
2022/09/15 05:30:13;;;;;;;4.30;3.07;;;18.80;99.90;;;;;;5100781;28;20474;-77
2022/09/15 05:33:03;;;;;;;3.00;2.40;;;18.70;99.90;;;;;;5102349;28;20450;-76
2022/09/15 05:35:36;;;;;;;3.57;2.70;;;18.70;99.90;;;;;;5108019;28;20811;-77
2022/09/15 05:38:07;;;;;;;3.87;2.90;;;18.80;99.90;;;;;;5098131;28;20947;-75
2022/09/15 05:40:37;;;;;;;3.53;2.60;;;18.70;99.90;;;;;;5094624;28;20558;-76
2022/09/15 05:43:08;;;;;;;2.90;2.57;;;18.70;99.90;;;;;;5102560;28;20513;-78
2022/09/15 05:45:41;;;;;;;3.30;2.97;;;18.80;99.90;;;;;;5119170;28;20461;-76
2022/09/15 05:48:12;;;;;;;3.77;3.00;;;18.90;99.90;;;;;;5102313;28;20925;-75
2022/09/15 05:50:51;;;;;;;4.10;2.90;;;18.80;99.90;;;;;;5106213;28;20458;-74
2022/09/15 05:53:22;;;;;;;5.10;3.00;;;18.80;99.90;;;;;;5112215;28;20439;-76
2022/09/15 05:55:56;;;;;;;4.37;3.30;;;18.80;99.90;;;;;;5102500;28;20532;-77
2022/09/15 05:58:28;;;;;;;3.43;2.93;;;18.80;99.90;;;;;;5110016;28;20446;-77
2022/09/15 06:01:03;;;;;;;3.67;3.37;;;18.90;99.90;;;;;;5102833;28;20565;-77
2022/09/15 06:03:34;;;;;;;2.70;2.40;;;18.90;99.90;;;;;;5117943;28;20446;-76
2022/09/15 06:06:07;;;;;;;3.03;2.57;;;18.90;99.90;;;;;;5122282;28;20416;-77
2022/09/15 06:08:39;;;;;;;3.30;2.60;;;18.90;99.90;;;;;;5117727;28;20417;-73
2022/09/15 06:11:14;;;;;;;3.53;3.07;;;18.80;99.90;;;;;;5115158;28;20431;-75
2022/09/15 06:13:46;;;;;;;3.93;3.23;;;18.90;99.90;;;;;;5106291;28;20428;-75
2022/09/15 06:16:18;;;;;;;4.60;2.60;;;18.90;99.90;;;;;;5102885;28;20522;-77
2022/09/15 06:18:50;;;;;;;5.10;3.80;;;18.90;99.90;;;;;;5102415;28;20923;-77
2022/09/15 06:21:25;;;;;;;4.33;2.67;;;18.90;99.90;;;;;;5102390;28;20428;-77
2022/09/15 06:23:56;;;;;;;3.43;3.13;;;18.90;99.90;;;;;;5109129;28;20417;-76
2022/09/15 06:26:28;;;;;;;3.40;2.90;;;18.80;99.90;;;;;;5111033;28;20451;-75
2022/09/15 06:29:00;;;;;;;3.50;3.20;;;18.80;99.90;;;;;;5102609;28;20504;-75
2022/09/15 06:31:32;;;;;;;4.20;3.40;;;18.80;99.90;;;;;;5097368;28;20436;-78
2022/09/15 06:34:04;;;;;;;5.50;4.20;;;18.80;99.90;;;;;;5101676;28;20440;-77
2022/09/15 06:36:38;;;;;;;3.67;3.37;;;18.80;99.90;;;;;;5101066;28;20457;-76
2022/09/15 06:39:09;;;;;;;3.87;3.47;;;18.80;99.90;;;;;;5101277;28;20464;-76
2022/09/15 06:41:40;;;;;;;5.07;3.63;;;18.80;99.90;;;;;;5102286;28;20841;-76
2022/09/15 06:44:30;;;;;;;4.43;3.30;;;18.80;99.90;;;;;;5111752;28;20492;-77
2022/09/15 06:47:01;;;;;;;3.93;3.47;;;18.90;99.90;;;;;;5100674;28;20459;-76
2022/09/15 06:49:32;;;;;;;3.50;2.60;;;18.80;99.90;;;;;;5101935;28;20819;-77
2022/09/15 06:52:05;;;;;;;3.80;3.20;;;18.80;99.90;;;;;;5113294;28;20511;-78
2022/09/15 06:54:36;;;;;;;3.77;3.13;;;18.80;99.90;;;;;;5104647;28;20494;-77
2022/09/15 06:57:06;;;;;;;3.60;3.17;;;18.80;99.90;;;;;;5102161;28;20498;-77
2022/09/15 06:59:37;;;;;;;3.20;2.90;;;18.80;99.90;;;;;;5112417;28;20453;-77
2022/09/15 07:02:09;;;;;;;4.90;3.73;;;18.70;99.90;;;;;;5099845;28;20531;-77
2022/09/15 07:04:40;;;;;;;3.40;3.00;;;18.70;99.90;;;;;;5101042;28;20433;-76
2022/09/15 07:07:12;;;;;;;3.30;3.00;;;18.70;99.90;;;;;;5109980;28;21336;-75
2022/09/15 07:09:44;;;;;;;5.20;3.50;;;18.70;99.90;;;;;;5103622;28;20429;-76
2022/09/15 07:12:18;;;;;;;3.73;3.00;;;18.70;99.90;;;;;;5104360;28;20435;-73
2022/09/15 07:14:48;;;;;;;4.30;3.43;;;18.70;99.90;;;;;;5103200;28;20481;-76
2022/09/15 07:17:19;;;;;;;4.00;3.20;;;18.70;99.90;;;;;;5110452;28;20466;-76
2022/09/15 07:19:50;;;;;;;4.20;3.40;;;18.70;99.90;;;;;;5101838;28;20535;-77
2022/09/15 07:22:22;;;;;;;3.53;3.23;;;18.70;99.90;;;;;;5106850;28;20458;-75
2022/09/15 07:24:53;;;;;;;3.63;3.33;;;18.70;99.90;;;;;;5103539;28;20437;-79
2022/09/15 07:27:29;;;;;;;3.47;3.03;;;18.70;99.90;;;;;;5103947;28;20561;-76
2022/09/15 07:29:59;;;;;;;2.83;2.53;;;18.70;99.90;;;;;;5114175;28;20480;-77
2022/09/15 07:32:30;;;;;;;4.13;3.20;;;18.70;99.90;;;;;;5108615;28;20454;-76
2022/09/15 07:35:01;;;;;;;4.37;3.50;;;18.70;99.90;;;;;;5113973;28;20489;-78
2022/09/15 07:37:34;;;;;;;4.10;3.70;;;18.70;99.90;;;;;;5111283;28;20486;-76
2022/09/15 07:40:06;;;;;;;3.00;2.70;;;18.70;99.90;;;;;;5110022;28;20459;-78
2022/09/15 07:42:37;;;;;;;3.47;3.17;;;18.70;99.90;;;;;;5110863;28;20427;-77
2022/09/15 07:45:09;;;;;;;2.87;2.67;;;18.70;99.90;;;;;;5104316;28;20835;-79
2022/09/15 07:47:39;;;;;;;3.10;2.50;;;18.70;99.90;;;;;;5105229;28;20433;-77
2022/09/15 07:50:13;;;;;;;4.20;3.13;;;18.60;99.90;;;;;;5108362;28;20518;-77
2022/09/15 07:52:45;;;;;;;3.50;3.00;;;18.60;99.90;;;;;;5114846;28;20473;-79
2022/09/15 07:55:17;;;;;;;4.30;3.60;;;18.60;99.90;;;;;;5119461;28;20551;-77
2022/09/15 07:57:48;;;;;;;4.20;3.80;;;18.60;99.90;;;;;;5115686;28;20752;-79
2022/09/15 08:00:19;;;;;;;3.70;3.23;;;18.60;99.90;;;;;;5107515;28;20463;-77
2022/09/15 08:02:49;;;;;;;5.40;3.27;;;18.60;99.90;;;;;;5109374;28;20512;-79
2022/09/15 08:05:21;;;;;;;4.70;3.50;;;18.60;99.90;;;;;;5103891;28;20489;-78
2022/09/15 08:07:55;;;;;;;3.77;3.47;;;18.50;99.90;;;;;;5108106;28;20462;-79
2022/09/15 08:10:26;;;;;;;4.50;3.63;;;18.50;99.90;;;;;;5115491;28;20425;-77
2022/09/15 08:12:58;;;;;;;3.87;3.10;;;18.60;99.90;;;;;;5104412;28;20565;-77
2022/09/15 08:15:29;;;;;;;4.10;3.70;;;18.60;99.90;;;;;;5106624;28;20463;-79
2022/09/15 08:18:01;;;;;;;3.90;3.00;;;18.50;99.90;;;;;;5102427;28;20444;-77
2022/09/15 08:20:32;;;;;;;5.10;3.40;;;18.60;99.90;;;;;;5108841;28;20441;-78
2022/09/15 08:23:04;;;;;;;3.87;3.30;;;18.60;99.90;;;;;;5107127;28;20489;-76
2022/09/15 08:25:35;;;;;;;4.00;3.20;;;18.60;99.90;;;;;;5104171;28;20488;-79
2022/09/15 08:28:07;;;;;;;3.57;3.27;;;18.60;99.90;;;;;;5111395;28;20505;-78
2022/09/15 08:30:38;;;;;;;4.10;3.33;;;18.60;99.90;;;;;;5106275;27;20433;-78
2022/09/15 08:33:09;;;;;;;3.80;3.40;;;18.60;99.90;;;;;;5103675;28;20436;-78
2022/09/15 08:35:39;;;;;;;3.80;3.23;;;18.50;99.90;;;;;;5104463;28;20485;-77
2022/09/15 08:38:12;;;;;;;4.70;3.50;;;18.50;99.90;;;;;;5115872;28;20455;-75
2022/09/15 08:40:46;;;;;;;5.23;3.60;;;18.50;99.90;;;;;;5112437;28;20413;-77
2022/09/15 08:43:23;;;;;;;3.20;2.90;;;18.50;99.90;;;;;;5116636;28;20436;-78
2022/09/15 08:45:59;;;;;;;3.77;3.20;;;18.50;99.90;;;;;;5104032;28;20477;-77
2022/09/15 08:48:37;;;;;;;3.33;3.03;;;18.40;99.90;;;;;;5103820;28;20424;-77
2022/09/15 08:51:16;;;;;;;3.60;3.20;;;18.40;99.90;;;;;;5117649;28;20436;-78
2022/09/15 08:53:52;;;;;;;3.30;2.97;;;18.40;99.90;;;;;;5099065;28;20560;-78
2022/09/15 08:56:23;;;;;;;3.73;3.33;;;18.40;99.90;;;;;;5106244;28;20596;-77
2022/09/15 08:58:55;;;;;;;3.73;3.43;;;18.30;99.90;;;;;;5104470;28;20462;-77
2022/09/15 09:01:37;;;;;;;4.00;3.60;;;18.30;99.90;;;;;;5117445;28;20432;-78
2022/09/15 09:04:27;;;;;;;4.53;3.70;;;18.30;99.90;;;;;;5100097;28;20537;-78
2022/09/15 09:07:10;;;;;;;3.40;3.10;;;18.20;99.90;;;;;;5098510;28;20490;-78
2022/09/15 09:09:49;;;;;;;3.53;3.20;;;18.20;99.90;;;;;;5098321;28;20559;-77
2022/09/15 09:12:35;;;;;;;3.43;2.83;;;18.20;99.90;;;;;;5098494;28;20470;-77
2022/09/15 09:15:20;;;;;;;4.17;2.90;;;18.20;99.90;;;;;;5107630;28;20836;-78
2022/09/15 09:18:13;;;;;;;3.93;3.40;;;18.20;99.90;;;;;;5115137;28;20462;-75
2022/09/15 09:20:52;;;;;;;3.10;2.80;;;18.20;99.90;;;;;;5103386;28;20506;-77
2022/09/15 09:23:26;;;;;;;4.23;3.50;;;18.20;99.90;;;;;;5101826;28;20441;-75
2022/09/15 09:26:01;;;;;;;4.67;3.50;;;18.20;99.90;;;;;;5103693;28;20450;-76
2022/09/15 09:28:41;;;;;;;4.60;3.40;;;18.30;99.90;;;;;;5102215;28;20890;-77
2022/09/15 09:31:18;;;;;;;4.77;4.03;;;18.20;99.90;;;;;;5108848;28;20428;-77
2022/09/15 09:33:54;;;;;;;5.43;4.40;;;18.10;99.90;;;;;;5112244;28;20432;-77
2022/09/15 09:36:26;;;;;;;4.73;3.80;;;18.10;99.90;;;;;;5101945;28;20465;-75
2022/09/15 09:38:57;;;;;;;5.27;3.97;;;18.10;99.90;;;;;;5100893;28;20437;-75
2022/09/15 09:41:35;;;;;;;4.47;3.60;;;18.20;99.90;;;;;;5111462;28;20503;-77
2022/09/15 09:44:14;;;;;;;5.00;4.00;;;18.20;99.90;;;;;;5102489;28;20417;-75
2022/09/15 09:46:45;;;;;;;3.83;3.40;;;18.10;99.90;;;;;;5097504;28;20463;-78
2022/09/15 09:49:22;;;;;;;4.57;3.30;;;18.10;99.90;;;;;;5085128;28;20429;-76
2022/09/15 09:51:53;;;;;;;4.80;4.03;;;18.20;99.90;;;;;;5101771;28;20827;-77
2022/09/15 09:54:28;;;;;;;6.57;3.47;;;18.10;99.90;;;;;;5115796;28;20466;-77
2022/09/15 09:57:27;;;;;;;4.50;3.20;;;18.10;99.90;;;;;;5107022;28;20490;-76
2022/09/15 09:59:59;;;;;;;5.03;3.60;;;18.10;99.90;;;;;;5103164;28;20429;-76
2022/09/15 10:02:30;;;;;;;4.77;4.10;;;18.10;99.90;;;;;;5105010;28;20450;-77
2022/09/15 10:05:20;;;;;;;3.43;3.13;;;18.00;99.90;;;;;;5102160;28;20466;-77
2022/09/15 10:07:51;;;;;;;6.03;3.70;;;18.00;99.90;;;;;;5114056;28;20463;-77
2022/09/15 10:10:24;;;;;;;4.27;3.47;;;18.00;99.90;;;;;;5102507;28;20475;-78
2022/09/15 10:12:58;;;;;;;4.10;2.97;;;18.00;99.90;;;;;;5103083;28;20445;-76
2022/09/15 10:15:32;;;;;;;3.93;3.53;;;18.00;99.90;;;;;;5090805;28;20497;-79
2022/09/15 10:18:04;;;;;;;4.60;3.67;;;18.00;99.90;;;;;;5100690;28;20466;-78
2022/09/15 10:20:39;;;;;;;4.90;3.63;;;17.90;99.90;;;;;;5099220;28;20455;-77
2022/09/15 10:23:27;;;;;;;3.80;3.33;;;17.90;99.90;;;;;;5102721;28;20455;-78
2022/09/15 10:26:19;;;;;;;3.40;3.10;;;17.90;99.90;;;;;;5096419;28;20528;-78
2022/09/15 10:29:13;;;;;;;4.00;2.60;;;17.90;99.90;;;;;;5103020;28;20502;-76
2022/09/15 10:31:44;;;;;;;3.97;3.13;;;17.90;99.90;;;;;;5093697;28;20441;-77
2022/09/15 10:34:30;;;;;;;3.50;3.10;;;17.90;99.90;;;;;;5101744;28;20496;-79
2022/09/15 10:37:11;;;;;;;4.73;3.37;;;17.90;99.90;;;;;;5102541;28;20525;-76
2022/09/15 10:39:53;;;;;;;5.33;3.50;;;17.80;99.90;;;;;;5089206;28;20470;-78
2022/09/15 10:42:41;;;;;;;4.30;3.23;;;17.80;99.90;;;;;;5102229;28;20531;-78
2022/09/15 10:45:21;;;;;;;5.43;3.80;;;17.80;99.90;;;;;;5101870;28;20429;-76
2022/09/15 10:48:10;;;;;;;3.93;3.53;;;17.80;99.90;;;;;;5094977;28;20806;-78
2022/09/15 10:50:54;;;;;;;4.43;3.37;;;17.90;99.90;;;;;;5106260;28;21280;-75
2022/09/15 10:53:37;;;;;;;3.40;3.10;;;17.80;99.90;;;;;;5104091;28;20471;-78
2022/09/15 10:56:18;;;;;;;5.67;3.90;;;17.80;99.90;;;;;;5104051;28;20429;-77
2022/09/15 10:59:06;;;;;;;3.67;3.30;;;17.80;99.90;;;;;;5104741;28;20470;-77
2022/09/15 11:02:09;;;;;;;3.83;3.43;;;17.80;99.90;;;;;;5105381;28;20466;-79
2022/09/15 11:04:56;;;;;;;3.33;3.00;;;17.80;99.90;;;;;;5089067;28;20530;-79
2022/09/15 11:07:34;;;;;;;4.80;3.63;;;17.80;99.90;;;;;;5105248;28;20579;-76
2022/09/15 11:10:14;;;;;;;5.27;3.43;;;17.80;99.90;;;;;;5102716;28;20449;-78
2022/09/15 11:12:57;;;;;;;5.07;3.73;;;17.80;99.90;;;;;;5115866;28;20517;-77
2022/09/15 11:15:49;;;;;;;3.17;2.87;;;17.70;99.90;;;;;;5105269;28;20797;-79
2022/09/15 11:18:45;;;;;;;4.77;3.50;;;17.80;99.90;;;;;;5092258;28;20498;-77
2022/09/15 11:21:24;;;;;;;4.30;3.50;;;17.70;99.90;;;;;;5109270;28;20487;-78
2022/09/15 11:24:11;;;;;;;6.20;3.00;;;17.70;99.90;;;;;;5106004;28;20432;-78
2022/09/15 11:26:46;;;;;;;3.33;3.03;;;17.80;99.90;;;;;;5113900;28;20651;-78
2022/09/15 11:29:24;;;;;;;3.20;2.90;;;17.80;99.90;;;;;;5108419;28;20466;-78
2022/09/15 11:32:01;;;;;;;3.80;3.40;;;17.70;99.90;;;;;;5110451;28;20456;-77
2022/09/15 11:34:40;;;;;;;3.83;3.43;;;17.70;99.90;;;;;;5105412;28;20475;-79
2022/09/15 11:37:19;;;;;;;5.00;3.90;;;17.70;99.90;;;;;;5116283;28;20926;-77
2022/09/15 11:39:57;;;;;;;3.50;3.03;;;17.70;99.90;;;;;;5120025;28;20755;-78
2022/09/15 11:42:34;;;;;;;4.90;3.47;;;17.70;99.90;;;;;;5125913;28;20439;-77
2022/09/15 11:45:11;;;;;;;5.40;3.70;;;17.70;99.90;;;;;;5109970;28;20507;-79
2022/09/15 11:47:45;;;;;;;4.10;3.00;;;17.70;99.90;;;;;;5105673;28;20458;-78
2022/09/15 11:50:21;;;;;;;4.03;2.93;;;17.70;99.90;;;;;;5108377;28;20445;-78
2022/09/15 11:52:59;;;;;;;3.80;3.20;;;17.70;99.90;;;;;;5094757;28;20786;-78
2022/09/15 11:55:36;;;;;;;3.60;3.23;;;17.70;99.90;;;;;;5106410;28;20443;-79
2022/09/15 11:58:20;;;;;;;4.67;3.60;;;17.80;99.90;;;;;;5107656;28;20465;-78
2022/09/15 12:00:57;;;;;;;4.43;4.03;;;17.70;99.90;;;;;;5124144;28;20498;-78
2022/09/15 12:03:33;;;;;;;5.80;3.87;;;17.70;99.90;;;;;;5125127;28;20446;-79
2022/09/15 12:06:10;;;;;;;5.63;3.67;;;17.70;99.90;;;;;;5108153;28;20428;-78
2022/09/15 12:08:48;;;;;;;4.57;3.10;;;17.70;99.90;;;;;;5111461;28;20437;-78
2022/09/15 12:11:23;;;;;;;5.27;4.00;;;17.70;99.90;;;;;;5106701;28;20424;-79
2022/09/15 12:13:55;;;;;;;5.00;3.80;;;17.70;99.90;;;;;;5105076;28;20439;-78
2022/09/15 12:16:27;;;;;;;5.87;4.20;;;17.70;99.90;;;;;;5104235;28;20429;-79
2022/09/15 12:19:02;;;;;;;4.00;3.50;;;17.60;99.90;;;;;;5107256;28;20469;-79
2022/09/15 12:21:38;;;;;;;3.87;3.40;;;17.60;99.90;;;;;;5115649;28;20529;-79
2022/09/15 12:24:17;;;;;;;4.33;3.37;;;17.70;99.90;;;;;;5109120;28;20591;-79
2022/09/15 12:26:49;;;;;;;4.40;3.77;;;17.60;99.90;;;;;;5089652;28;20484;-80
2022/09/15 12:29:40;;;;;;;3.40;3.10;;;17.60;99.90;;;;;;5105358;28;20459;-77
2022/09/15 12:32:27;;;;;;;4.27;3.33;;;17.60;99.90;;;;;;5108999;28;20431;-79
2022/09/15 12:35:26;;;;;;;4.57;3.50;;;17.60;99.90;;;;;;5104436;28;20433;-78
2022/09/15 12:37:59;;;;;;;4.70;3.47;;;17.60;99.90;;;;;;5103175;28;20530;-78
2022/09/15 12:40:40;;;;;;;4.83;4.33;;;17.60;99.90;;;;;;5114142;28;20505;-77
2022/09/15 12:43:23;;;;;;;4.97;3.57;;;17.50;99.90;;;;;;5109581;28;20479;-76
2022/09/15 12:45:57;;;;;;;4.40;3.57;;;17.50;99.90;;;;;;5103550;28;20456;-77
2022/09/15 12:48:30;;;;;;;4.53;3.60;;;17.50;99.90;;;;;;5103218;28;20464;-76
2022/09/15 12:51:03;;;;;;;4.80;3.20;;;17.50;99.90;;;;;;5108507;28;20825;-77
2022/09/15 12:53:36;;;;;;;4.23;3.43;;;17.50;99.90;;;;;;5121183;28;20549;-76
2022/09/15 12:56:22;;;;;;;4.93;4.10;;;17.50;99.90;;;;;;5102001;28;20433;-77
2022/09/15 12:58:54;;;;;;;5.47;3.63;;;17.60;99.90;;;;;;5105369;28;20542;-77
2022/09/15 13:01:48;;;;;;;6.27;4.37;;;17.60;99.90;;;;;;5109975;28;20553;-77
2022/09/15 13:04:50;;;;;;;4.07;3.10;;;17.50;99.90;;;;;;5104200;28;20505;-78
2022/09/15 13:07:34;;;;;;;4.73;4.00;;;17.50;99.90;;;;;;5101167;28;20440;-73
2022/09/15 13:10:31;;;;;;;3.97;3.43;;;17.50;99.90;;;;;;5103914;28;20527;-77
2022/09/15 13:13:14;;;;;;;4.50;3.83;;;17.40;99.90;;;;;;5109068;28;20540;-77
2022/09/15 13:15:48;;;;;;;4.60;3.47;;;17.40;99.90;;;;;;5083869;28;20447;-78
2022/09/15 13:18:20;;;;;;;4.47;3.40;;;17.40;99.90;;;;;;5082595;28;20492;-77
2022/09/15 13:20:57;;;;;;;6.77;3.37;;;17.40;99.90;;;;;;5083183;28;20447;-78
2022/09/15 13:23:31;;;;;;;3.63;3.27;;;17.40;99.90;;;;;;5083487;28;20500;-78
2022/09/15 13:26:02;;;;;;;5.50;3.77;;;17.40;99.90;;;;;;5083568;28;20452;-78
2022/09/15 13:28:35;;;;;;;5.63;3.77;;;17.40;99.90;;;;;;5083075;28;20918;-79
2022/09/15 13:31:21;;;;;;;6.03;3.80;;;17.30;99.90;;;;;;5101690;28;20817;-78
2022/09/15 13:34:26;;;;;;;5.73;3.67;;;17.30;99.90;;;;;;5093047;28;20477;-77